Briarwood Trace, Illinois
Current Conditions -  °F | °C
As of 7:06 AM on Thursday 30 Oct 2014 (Local Time) from KMDH Reporting Station
Haze Haze  
Wind Chill: 32°   Ceiling: Unl
Heat Index: 32°   Visibility: 4mi
Dew Point: 31°   Wind: 0mph
Humidity: 96%   Direction: NA
Pressure: 30.18"   Gusts: NA
Location:  37.7248°N, 89.197°W
Report Text: KMDH 301206Z 00000KT 4SM BR CLR 00/M01 A3018 RMK AO2 T00001006
Loading
Personal Weather Stations






























Interactive Weather Map
Tropical Storm Tracking
New forecast layout! Learn more

10-Day Weather Forecast

Advertisements
Track Severe Weather on mobile